createdAt,value
2022-10-09T00:03:57.970Z,17.20
2022-10-09T00:06:35.001Z,14.10
2022-10-09T00:09:04.279Z,13.73
2022-10-09T00:11:34.136Z,12.88
2022-10-09T00:14:03.207Z,14.00
2022-10-09T00:16:31.123Z,14.00
2022-10-09T00:18:59.263Z,14.98
2022-10-09T00:21:31.572Z,13.23
2022-10-09T00:24:03.517Z,13.20
2022-10-09T00:26:31.839Z,16.85
2022-10-09T00:28:59.698Z,16.23
2022-10-09T00:31:27.506Z,14.55
2022-10-09T00:33:55.599Z,16.95
2022-10-09T00:36:25.978Z,15.13
2022-10-09T00:38:55.206Z,13.23
2022-10-09T00:41:29.992Z,11.93
2022-10-09T00:44:04.510Z,12.15
2022-10-09T00:46:45.928Z,14.93
2022-10-09T00:49:29.053Z,15.75
2022-10-09T00:52:06.103Z,13.70
2022-10-09T00:54:38.427Z,17.02
2022-10-09T00:57:06.685Z,14.05
2022-10-09T00:59:35.513Z,14.02
2022-10-09T01:02:03.094Z,14.32
2022-10-09T01:04:31.308Z,14.93
2022-10-09T01:07:22.500Z,16.73
2022-10-09T01:10:28.049Z,17.83
2022-10-09T01:13:09.071Z,14.27
2022-10-09T01:16:06.077Z,14.70
2022-10-09T01:18:48.702Z,15.35
2022-10-09T01:21:37.147Z,16.83
2022-10-09T01:24:38.707Z,17.42
2022-10-09T01:27:25.144Z,20.67
2022-10-09T01:30:04.290Z,14.73
2022-10-09T01:32:37.753Z,16.52
2022-10-09T01:35:08.982Z,15.77
2022-10-09T01:37:40.494Z,18.83
2022-10-09T01:40:11.040Z,21.55
2022-10-09T01:42:38.948Z,15.82
2022-10-09T01:45:07.471Z,17.40
2022-10-09T01:47:35.053Z,17.20
2022-10-09T01:50:20.852Z,17.58
2022-10-09T01:52:52.404Z,20.23
2022-10-09T01:55:46.127Z,21.30
2022-10-09T01:58:22.539Z,20.00
2022-10-09T02:01:04.248Z,18.65
2022-10-09T02:03:35.364Z,24.42
2022-10-09T02:06:06.743Z,17.88
2022-10-09T02:08:38.134Z,20.58
2022-10-09T02:11:06.703Z,20.25
2022-10-09T02:13:36.541Z,22.83
2022-10-09T02:16:41.283Z,25.10
2022-10-09T02:19:28.624Z,25.58
2022-10-09T02:22:20.037Z,21.45
2022-10-09T02:24:48.123Z,22.13
2022-10-09T02:27:18.778Z,18.63
2022-10-09T02:29:47.611Z,18.17
2022-10-09T02:32:16.579Z,19.77
2022-10-09T02:34:44.672Z,21.65
2022-10-09T02:37:12.674Z,22.20
2022-10-09T02:39:40.946Z,20.05
2022-10-09T02:42:08.402Z,20.23
2022-10-09T02:44:36.418Z,21.53
2022-10-09T02:47:04.024Z,22.10
2022-10-09T02:49:31.481Z,25.58
2022-10-09T02:51:59.003Z,23.50
2022-10-09T02:54:26.531Z,26.53
2022-10-09T02:56:54.022Z,22.00
2022-10-09T02:59:21.615Z,24.90
2022-10-09T03:01:49.193Z,25.15
2022-10-09T03:04:16.843Z,26.05
2022-10-09T03:06:45.170Z,26.35
2022-10-09T03:11:40.060Z,24.63
2022-10-09T03:14:07.639Z,25.43
2022-10-09T03:16:35.357Z,29.08
2022-10-09T03:19:03.072Z,24.55
2022-10-09T03:21:30.586Z,26.58
2022-10-09T03:23:58.143Z,27.17
2022-10-09T03:26:28.096Z,26.83
2022-10-09T03:28:56.339Z,26.17
2022-10-09T03:34:13.830Z,26.27
2022-10-09T03:36:42.335Z,25.30
2022-10-09T03:39:10.366Z,25.83
2022-10-09T03:41:37.858Z,26.48
2022-10-09T03:44:05.483Z,28.53
2022-10-09T03:46:33.001Z,26.63
2022-10-09T03:49:00.577Z,26.85
2022-10-09T03:51:28.382Z,25.73
2022-10-09T03:53:55.828Z,27.60
2022-10-09T03:56:23.333Z,24.30
2022-10-09T03:58:51.065Z,24.50
2022-10-09T04:01:18.704Z,28.25
2022-10-09T04:03:46.230Z,28.95
2022-10-09T04:06:13.815Z,22.33
2022-10-09T04:08:41.289Z,27.35
2022-10-09T04:11:08.791Z,24.50
2022-10-09T04:13:36.290Z,25.33
2022-10-09T04:16:03.901Z,25.60
2022-10-09T04:18:31.414Z,24.90
2022-10-09T04:20:58.916Z,23.83
2022-10-09T04:23:28.070Z,21.33
2022-10-09T04:26:01.113Z,24.45
2022-10-09T04:28:31.674Z,24.58
2022-10-09T04:30:59.593Z,24.05
2022-10-09T04:33:27.730Z,23.75
2022-10-09T04:35:56.929Z,27.05
2022-10-09T04:38:25.031Z,23.75
2022-10-09T04:41:00.980Z,21.17
2022-10-09T04:43:29.436Z,23.17
2022-10-09T04:45:57.605Z,22.83
2022-10-09T04:48:26.141Z,23.80
2022-10-09T04:50:53.622Z,22.90
2022-10-09T04:53:21.114Z,24.67
2022-10-09T04:55:48.695Z,21.50
2022-10-09T04:58:16.169Z,24.55
2022-10-09T05:00:46.407Z,23.30
2022-10-09T05:03:14.003Z,23.60
2022-10-09T05:05:41.641Z,21.25
2022-10-09T05:08:09.228Z,25.58
2022-10-09T05:10:36.931Z,25.38
2022-10-09T05:13:04.680Z,25.58
2022-10-09T05:15:35.808Z,20.48
2022-10-09T05:18:03.317Z,24.00
2022-10-09T05:20:30.854Z,23.20
2022-10-09T05:22:58.309Z,21.17
2022-10-09T05:25:25.948Z,23.25
2022-10-09T05:27:53.387Z,25.23
2022-10-09T05:30:20.857Z,21.52
2022-10-09T05:32:48.625Z,24.85
2022-10-09T05:35:16.400Z,22.30
2022-10-09T05:37:46.760Z,26.83
2022-10-09T05:40:14.322Z,26.45
2022-10-09T05:42:41.894Z,20.52
2022-10-09T05:45:10.875Z,21.27
2022-10-09T05:47:38.339Z,20.50
2022-10-09T05:50:06.306Z,22.88
2022-10-09T05:52:35.785Z,22.70
2022-10-09T05:55:03.743Z,20.90
2022-10-09T05:57:31.178Z,23.17
2022-10-09T05:59:58.626Z,19.88
2022-10-09T06:02:26.153Z,23.10
2022-10-09T06:04:53.742Z,20.08
2022-10-09T06:07:21.233Z,21.65
2022-10-09T06:09:48.754Z,20.42
2022-10-09T06:12:16.299Z,21.52
2022-10-09T06:14:43.755Z,19.42
2022-10-09T06:17:11.223Z,17.40
2022-10-09T06:19:38.707Z,17.55
2022-10-09T06:22:06.185Z,20.60
2022-10-09T06:24:33.679Z,17.75
2022-10-09T06:27:01.227Z,15.82
2022-10-09T06:29:30.120Z,15.75
2022-10-09T06:31:57.593Z,15.52
2022-10-09T06:34:25.349Z,15.48
2022-10-09T06:36:52.887Z,17.02
2022-10-09T06:39:20.471Z,14.73
2022-10-09T06:41:48.246Z,13.18
2022-10-09T06:44:38.883Z,12.32
2022-10-09T06:59:23.121Z,10.73
2022-10-09T07:04:18.788Z,11.43
2022-10-09T07:06:49.642Z,11.00
2022-10-09T07:09:17.165Z,12.35
2022-10-09T07:14:15.980Z,12.00
2022-10-09T07:16:47.188Z,10.70
2022-10-09T07:19:17.495Z,10.32
2022-10-09T07:21:48.682Z,10.13
2022-10-09T07:24:17.628Z,8.90
2022-10-09T07:26:47.050Z,9.05
2022-10-09T07:29:17.112Z,8.55
2022-10-09T07:31:44.965Z,7.50
2022-10-09T07:34:12.498Z,6.93
2022-10-09T07:36:40.042Z,7.75
2022-10-09T07:39:07.739Z,6.95
2022-10-09T07:41:35.798Z,7.32
2022-10-09T07:44:03.357Z,7.30
2022-10-09T07:46:33.735Z,7.30
2022-10-09T07:49:03.069Z,6.72
2022-10-09T07:51:32.171Z,5.88
2022-10-09T07:54:02.021Z,6.90
2022-10-09T07:56:35.768Z,6.78
2022-10-09T07:59:06.637Z,8.90
2022-10-09T08:01:35.831Z,8.50
2022-10-09T08:04:04.474Z,8.52
2022-10-09T08:06:32.924Z,6.95
2022-10-09T08:09:02.161Z,7.78
2022-10-09T08:11:30.845Z,7.00
2022-10-09T08:13:59.009Z,5.57
2022-10-09T08:16:28.176Z,6.60
2022-10-09T08:19:01.284Z,5.93
2022-10-09T08:21:29.687Z,6.15
2022-10-09T08:23:59.158Z,6.22
2022-10-09T08:26:30.070Z,7.15
2022-10-09T08:29:05.849Z,6.35
2022-10-09T08:31:33.342Z,6.30
2022-10-09T08:36:29.559Z,6.97
2022-10-09T08:38:57.415Z,6.43
2022-10-09T08:41:43.585Z,6.07
2022-10-09T08:44:31.886Z,5.78
2022-10-09T08:47:18.732Z,5.72
2022-10-09T08:50:15.785Z,5.50
2022-10-09T08:56:01.431Z,5.30
2022-10-09T08:58:36.634Z,6.22
2022-10-09T09:01:58.123Z,6.07
2022-10-09T09:04:54.955Z,5.40
2022-10-09T09:07:48.128Z,5.63
2022-10-09T09:10:49.573Z,5.93
2022-10-09T09:13:39.935Z,6.65
2022-10-09T09:16:54.182Z,5.82
2022-10-09T09:19:53.647Z,7.47
2022-10-09T09:22:24.511Z,5.93
2022-10-09T09:24:56.102Z,6.45
2022-10-09T09:27:36.802Z,5.57
2022-10-09T09:30:18.272Z,6.72
2022-10-09T09:33:03.878Z,5.65
2022-10-09T09:36:15.755Z,8.43
2022-10-09T09:39:12.603Z,5.68
2022-10-09T09:41:30.786Z,5.38
2022-10-09T09:43:58.347Z,6.10
2022-10-09T09:46:30.398Z,5.20
2022-10-09T09:48:57.936Z,5.43
2022-10-09T09:51:32.087Z,7.15
2022-10-09T09:54:22.715Z,4.85
2022-10-09T09:59:44.267Z,6.22
2022-10-09T10:02:18.734Z,5.03
2022-10-09T10:05:01.204Z,5.53
2022-10-09T10:07:33.931Z,5.25
2022-10-09T10:10:07.142Z,4.68
2022-10-09T10:12:42.153Z,5.28
2022-10-09T10:15:32.485Z,4.53
2022-10-09T10:18:11.992Z,5.38
2022-10-09T10:20:54.175Z,4.72
2022-10-09T10:23:35.341Z,5.50
2022-10-09T10:26:26.831Z,5.38
2022-10-09T10:29:23.599Z,5.35
2022-10-09T10:34:29.886Z,5.05
2022-10-09T10:37:13.776Z,5.55
2022-10-09T10:39:56.915Z,4.55
2022-10-09T10:43:02.890Z,4.90
2022-10-09T10:46:00.446Z,4.50
2022-10-09T10:48:33.275Z,5.25
2022-10-09T10:51:40.920Z,3.60
2022-10-09T10:54:37.585Z,4.03
2022-10-09T11:00:13.018Z,4.72
2022-10-09T11:03:14.101Z,4.57
2022-10-09T11:06:12.505Z,4.50
2022-10-09T11:09:01.459Z,4.70
2022-10-09T11:11:42.961Z,5.80
2022-10-09T11:14:48.143Z,5.00
2022-10-09T11:17:43.572Z,5.35
2022-10-09T11:20:37.400Z,6.15
2022-10-09T11:23:31.968Z,5.93
2022-10-09T11:26:33.780Z,5.85
2022-10-09T11:29:15.164Z,6.43
2022-10-09T11:32:11.755Z,5.70
2022-10-09T11:34:46.597Z,6.95
2022-10-09T11:37:23.635Z,5.18
2022-10-09T11:39:51.668Z,5.13
2022-10-09T11:42:25.726Z,5.03
2022-10-09T11:45:07.933Z,7.88
2022-10-09T11:48:04.594Z,5.30
2022-10-09T11:51:07.060Z,5.07
2022-10-09T11:53:37.029Z,5.22
2022-10-09T11:56:09.007Z,5.30
2022-10-09T11:58:36.570Z,5.20
2022-10-09T12:04:37.477Z,4.97
2022-10-09T12:07:12.570Z,5.32
2022-10-09T12:09:45.059Z,4.28
2022-10-09T12:12:15.594Z,4.45
2022-10-09T12:14:47.636Z,5.25
2022-10-09T12:17:35.654Z,5.97
2022-10-09T12:20:20.321Z,5.10
2022-10-09T12:23:24.728Z,5.40
2022-10-09T12:25:46.429Z,5.82
2022-10-09T12:28:24.212Z,5.97
2022-10-09T12:30:52.645Z,5.72
2022-10-09T12:33:27.821Z,5.30
2022-10-09T12:36:14.739Z,5.75
2022-10-09T12:38:43.427Z,6.25
2022-10-09T12:41:34.104Z,5.60
2022-10-09T12:44:25.865Z,5.70
2022-10-09T12:46:53.925Z,4.88
2022-10-09T12:49:25.635Z,5.50
2022-10-09T12:51:57.337Z,4.65
2022-10-09T12:54:28.094Z,5.43
2022-10-09T12:58:55.051Z,5.65
2022-10-09T13:01:24.044Z,5.88
2022-10-09T13:03:59.930Z,5.40
2022-10-09T13:06:46.336Z,5.32
2022-10-09T13:09:37.140Z,5.28
2022-10-09T13:12:22.615Z,5.68
2022-10-09T13:14:56.454Z,5.55
2022-10-09T13:17:37.241Z,6.30
2022-10-09T13:20:16.934Z,6.20
2022-10-09T13:22:56.222Z,6.03
2022-10-09T13:25:33.500Z,6.28
2022-10-09T13:28:03.231Z,5.35
2022-10-09T13:30:31.318Z,6.38
2022-10-09T13:32:59.379Z,5.93
2022-10-09T13:35:26.944Z,6.07
2022-10-09T13:37:54.424Z,7.07
2022-10-09T13:40:22.335Z,7.18
2022-10-09T13:42:55.669Z,6.60
2022-10-09T13:45:23.815Z,7.20
2022-10-09T13:47:51.870Z,6.50
2022-10-09T13:50:19.959Z,6.82
2022-10-09T13:52:47.572Z,9.52
2022-10-09T13:55:15.739Z,7.13
2022-10-09T13:57:43.285Z,7.43
2022-10-09T14:00:11.751Z,6.80
2022-10-09T14:02:41.993Z,8.63
2022-10-09T14:05:09.734Z,7.00
2022-10-09T14:07:37.242Z,7.93
2022-10-09T14:10:05.943Z,6.45
2022-10-09T14:12:33.558Z,7.43
2022-10-09T14:15:01.014Z,7.60
2022-10-09T14:17:28.514Z,7.68
2022-10-09T14:19:56.059Z,7.90
2022-10-09T14:22:23.599Z,7.90
2022-10-09T14:24:51.079Z,9.07
2022-10-09T14:27:18.718Z,17.13
2022-10-09T14:29:47.414Z,9.93
2022-10-09T14:32:14.998Z,8.63
2022-10-09T14:34:42.446Z,9.88
2022-10-09T14:37:23.764Z,8.05
2022-10-09T14:39:58.060Z,8.55
2022-10-09T14:42:25.532Z,8.57
2022-10-09T14:44:54.146Z,7.53
2022-10-09T14:47:21.592Z,6.90
2022-10-09T14:49:49.067Z,7.90
2022-10-09T14:52:16.534Z,8.52
2022-10-09T14:54:43.970Z,8.80
2022-10-09T14:57:11.471Z,9.10
2022-10-09T14:59:38.923Z,10.27
2022-10-09T15:02:10.077Z,7.97
2022-10-09T15:04:37.546Z,8.35
2022-10-09T15:07:05.035Z,8.32
2022-10-09T15:09:32.490Z,8.68
2022-10-09T15:12:00.039Z,9.68
2022-10-09T15:14:27.557Z,9.40
2022-10-09T15:16:55.047Z,8.10
2022-10-09T15:19:22.526Z,8.52
2022-10-09T15:21:49.995Z,8.20
2022-10-09T15:24:17.453Z,9.20
2022-10-09T15:26:44.943Z,12.63
2022-10-09T15:29:12.399Z,9.45
2022-10-09T15:31:41.379Z,11.23
2022-10-09T15:34:16.576Z,9.63
2022-10-09T15:36:45.857Z,10.75
2022-10-09T15:39:13.905Z,10.98
2022-10-09T15:41:43.321Z,12.15
2022-10-09T15:44:20.292Z,11.75
2022-10-09T15:46:49.154Z,11.77
2022-10-09T15:49:17.095Z,15.20
2022-10-09T15:51:44.830Z,13.38
2022-10-09T15:54:14.364Z,13.27
2022-10-09T15:56:42.311Z,11.80
2022-10-09T15:59:14.153Z,17.13
2022-10-09T16:01:41.746Z,22.27
2022-10-09T16:04:09.729Z,20.00
2022-10-09T16:06:37.686Z,16.88
2022-10-09T16:09:05.330Z,16.42
2022-10-09T16:11:34.572Z,16.98
2022-10-09T16:14:02.362Z,15.50
2022-10-09T16:16:30.400Z,15.15
2022-10-09T16:18:58.334Z,12.27
2022-10-09T16:21:28.821Z,12.80
2022-10-09T16:23:59.414Z,14.35
2022-10-09T16:26:29.607Z,13.30
2022-10-09T16:29:00.059Z,14.23
2022-10-09T16:31:34.605Z,17.33
2022-10-09T16:34:05.490Z,14.18
2022-10-09T16:36:34.151Z,18.25
2022-10-09T16:39:01.706Z,15.35
2022-10-09T16:41:29.557Z,21.40
2022-10-09T16:43:57.933Z,22.92
2022-10-09T16:49:03.163Z,17.55
2022-10-09T16:51:36.281Z,18.05
2022-10-09T16:54:06.106Z,13.93
2022-10-09T16:56:37.916Z,14.15
2022-10-09T16:59:10.876Z,12.10
2022-10-09T17:01:43.591Z,14.15
2022-10-09T17:04:13.137Z,12.40
2022-10-09T17:06:43.794Z,12.68
2022-10-09T17:09:14.346Z,17.65
2022-10-09T17:11:43.508Z,20.77
2022-10-09T17:14:12.123Z,19.77
2022-10-09T17:16:41.693Z,14.80
2022-10-09T17:19:09.391Z,16.10
2022-10-09T17:21:37.116Z,17.83
2022-10-09T17:24:06.405Z,19.73
2022-10-09T17:26:34.983Z,20.52
2022-10-09T17:29:03.157Z,31.40
2022-10-09T17:34:03.163Z,27.15
2022-10-09T17:36:38.066Z,28.38
2022-10-09T17:39:09.462Z,30.95
2022-10-09T17:41:37.147Z,31.92
2022-10-09T17:44:05.333Z,23.50
2022-10-09T17:49:01.037Z,21.23
2022-10-09T17:51:36.032Z,17.90
2022-10-09T17:54:11.707Z,19.55
2022-10-09T17:56:41.186Z,17.10
2022-10-09T17:59:09.391Z,18.23
2022-10-09T18:01:39.654Z,19.58
2022-10-09T18:04:07.333Z,17.67
2022-10-09T18:06:35.603Z,20.10
2022-10-09T18:11:31.608Z,22.10
2022-10-09T18:14:01.885Z,22.25
2022-10-09T18:16:36.807Z,18.30
2022-10-09T18:19:15.059Z,18.80
2022-10-09T18:21:49.176Z,17.80
2022-10-09T18:24:17.831Z,37.05
2022-10-09T18:26:45.461Z,25.17
2022-10-09T18:29:12.933Z,19.63
2022-10-09T18:31:40.530Z,26.23
2022-10-09T18:34:09.660Z,27.63
2022-10-09T18:36:37.837Z,19.40
2022-10-09T18:39:10.183Z,17.15
2022-10-09T18:41:38.187Z,15.40
2022-10-09T18:44:12.597Z,16.60
2022-10-09T18:46:48.447Z,14.38
2022-10-09T18:49:21.058Z,16.15
2022-10-09T18:51:49.532Z,17.35
2022-10-09T18:54:21.696Z,17.83
2022-10-09T18:56:49.325Z,16.27
2022-10-09T18:59:20.671Z,20.23
2022-10-09T19:01:48.448Z,18.83
2022-10-09T19:04:16.036Z,26.67
2022-10-09T19:06:43.591Z,36.63
2022-10-09T19:09:11.165Z,36.22
2022-10-09T19:11:38.712Z,30.23
2022-10-09T19:14:06.229Z,30.20
2022-10-09T19:16:35.540Z,30.63
2022-10-09T19:19:04.116Z,24.75
2022-10-09T19:21:31.846Z,30.27
2022-10-09T19:24:03.494Z,26.83
2022-10-09T19:26:33.047Z,22.25
2022-10-09T19:29:00.759Z,24.10
2022-10-09T19:31:28.318Z,30.27
2022-10-09T19:33:55.803Z,25.75
2022-10-09T19:36:23.282Z,20.85
2022-10-09T19:38:50.893Z,24.98
2022-10-09T19:41:18.443Z,28.85
2022-10-09T19:43:45.948Z,24.17
2022-10-09T19:46:17.707Z,21.83
2022-10-09T19:48:45.980Z,19.05
2022-10-09T19:53:44.758Z,18.48
2022-10-09T19:56:21.570Z,16.70
2022-10-09T19:58:50.009Z,17.55
2022-10-09T20:01:22.401Z,15.77
2022-10-09T20:03:56.431Z,14.23
2022-10-09T20:06:24.142Z,16.10
2022-10-09T20:08:52.235Z,19.92
2022-10-09T20:11:23.038Z,35.78
2022-10-09T20:13:55.544Z,40.35
2022-10-09T20:16:24.990Z,34.95
2022-10-09T20:18:54.985Z,35.33
2022-10-09T20:21:22.760Z,42.03
2022-10-09T20:23:51.558Z,39.70
2022-10-09T20:26:21.482Z,21.00
2022-10-09T20:28:50.087Z,20.05
2022-10-09T20:31:23.124Z,18.30
2022-10-09T20:33:52.107Z,18.80
2022-10-09T20:36:35.384Z,18.10
2022-10-09T20:39:11.563Z,15.32
2022-10-09T20:41:41.294Z,15.18
2022-10-09T20:44:09.586Z,15.98
2022-10-09T20:49:12.836Z,16.80
2022-10-09T20:51:41.483Z,15.50
2022-10-09T20:54:16.190Z,17.65
2022-10-09T20:56:46.745Z,17.88
2022-10-09T20:59:16.153Z,16.10
2022-10-09T21:01:43.877Z,15.30
2022-10-09T21:04:12.236Z,15.85
2022-10-09T21:09:07.992Z,17.70
2022-10-09T21:11:35.704Z,18.42
2022-10-09T21:14:03.373Z,18.33
2022-10-09T21:16:31.002Z,17.98
2022-10-09T21:19:03.762Z,16.38
2022-10-09T21:21:32.671Z,16.73
2022-10-09T21:24:01.402Z,18.00
2022-10-09T21:26:31.524Z,15.43
2022-10-09T21:29:00.113Z,14.98
2022-10-09T21:31:30.943Z,20.23
2022-10-09T21:34:01.150Z,18.63
2022-10-09T21:36:37.359Z,19.08
2022-10-09T21:39:06.997Z,17.90
2022-10-09T21:41:36.271Z,19.25
2022-10-09T21:44:05.478Z,17.30
2022-10-09T21:46:34.600Z,19.70
2022-10-09T21:49:07.383Z,16.95
2022-10-09T21:51:35.230Z,17.17
2022-10-09T21:54:02.726Z,17.70
2022-10-09T21:56:30.215Z,14.53
2022-10-09T21:58:57.674Z,17.87
2022-10-09T22:01:25.312Z,15.87
2022-10-09T22:03:53.164Z,17.33
2022-10-09T22:06:20.647Z,16.55
2022-10-09T22:08:48.647Z,16.73
2022-10-09T22:11:17.033Z,15.88
2022-10-09T22:16:15.506Z,14.57
2022-10-09T22:18:43.590Z,14.63
2022-10-09T22:21:15.523Z,17.00
2022-10-09T22:23:43.576Z,17.60
2022-10-09T22:26:18.861Z,16.92
2022-10-09T22:28:47.482Z,17.63
2022-10-09T22:31:23.400Z,14.32
2022-10-09T22:33:54.199Z,13.93
2022-10-09T22:36:25.150Z,16.17
2022-10-09T22:39:02.616Z,17.13
2022-10-09T22:41:31.235Z,16.50
2022-10-09T22:44:00.732Z,14.77
2022-10-09T22:46:35.523Z,15.90
2022-10-09T22:49:04.675Z,19.13
2022-10-09T22:51:32.240Z,14.63
2022-10-09T22:54:00.363Z,14.73
2022-10-09T22:56:38.648Z,18.23
2022-10-09T23:01:40.727Z,14.23
2022-10-09T23:04:12.632Z,15.38
2022-10-09T23:06:41.572Z,19.00
2022-10-09T23:09:13.380Z,17.25
2022-10-09T23:11:41.935Z,17.13
2022-10-09T23:14:11.495Z,15.40
2022-10-09T23:16:39.388Z,19.40
2022-10-09T23:19:07.610Z,17.08
2022-10-09T23:21:38.771Z,19.30
2022-10-09T23:24:07.928Z,18.52
2022-10-09T23:26:37.005Z,15.35
2022-10-09T23:29:09.577Z,16.77
2022-10-09T23:31:37.113Z,15.38
2022-10-09T23:34:06.764Z,14.20
2022-10-09T23:36:34.979Z,16.33
2022-10-09T23:39:05.642Z,14.82
2022-10-09T23:41:33.453Z,13.63
2022-10-09T23:44:01.010Z,16.10
2022-10-09T23:46:33.789Z,13.95
2022-10-09T23:49:01.646Z,14.18
2022-10-09T23:51:30.099Z,14.30
2022-10-09T23:56:29.443Z,13.13
2022-10-09T23:58:59.431Z,13.75
